Terminal Aerodrome Forecast
Issued by NWS

Home | Current Version | Previous Version | Graphics & Text | Print | Product List | Glossary Off
Versions: 1 2 3 4 5 6 7 8 9 10 11 12 13 14 15 16 17 18 19 20 21 22

000
FTUS43 KDDC 242333
TAFHYS
TAF
KHYS 242333Z 2500/2524 36026G31KT P6SM OVC010
     FM250200 36018G26KT P6SM OVC008
     FM251100 34017G25KT P6SM OVC010
     FM251400 35013KT P6SM SCT015
     FM252000 35009KT P6SM FEW045
      AMD NOT SKED=

USA.gov is the U.S. government's official web portal to all federal, state and local government web resources and services.